Time;durP1;ratioP1;P1;durP2;ratioP2;P2;SDS_P1;SDS_P2;PMS_P1;PMS_P2;Temp;Humidity;BMP_temperature;BMP_pressure;BME280_temperature;BME280_humidity;BME280_pressure;Samples;Min_cycle;Max_cycle;Signal;HPM_P1;HPM_P2
2023/01/19 00:00:55;;;;;;;59.58;25.63;;;;;;;2.74;100.00;101450.06;10379394;28;20038;-81
2023/01/19 00:05:56;;;;;;;55.03;25.13;;;;;;;2.78;100.00;101460.38;10378779;28;20128;-81
2023/01/19 00:10:57;;;;;;;64.88;25.33;;;;;;;3.01;100.00;101488.72;10379575;28;20038;-81
2023/01/19 00:15:58;;;;;;;61.10;24.00;;;;;;;3.17;100.00;101512.28;10377981;28;20052;-81
2023/01/19 00:20:58;;;;;;;50.03;21.77;;;;;;;3.20;100.00;101507.72;10377485;28;20046;-81
2023/01/19 00:25:59;;;;;;;72.45;23.35;;;;;;;3.18;100.00;101506.97;10378920;28;20074;-81
2023/01/19 00:31:00;;;;;;;59.25;24.98;;;;;;;2.93;100.00;101476.09;10377117;28;20050;-81
2023/01/19 00:36:00;;;;;;;49.17;22.10;;;;;;;3.20;100.00;101527.84;10378095;28;20042;-80
2023/01/19 00:41:01;;;;;;;72.82;23.35;;;;;;;2.86;100.00;101466.88;10377192;28;20056;-81
2023/01/19 00:46:02;;;;;;;61.78;25.27;;;;;;;2.73;100.00;101453.63;10377767;28;20049;-81
2023/01/19 00:51:03;;;;;;;44.95;22.52;;;;;;;2.97;100.00;101488.06;10377075;28;20034;-81
2023/01/19 00:56:04;;;;;;;48.85;22.38;;;;;;;3.18;100.00;101520.09;10376697;28;20494;-82
2023/01/19 01:01:05;;;;;;;55.80;22.83;;;;;;;3.20;100.00;101531.34;10377637;28;20045;-81
2023/01/19 01:06:07;;;;;;;62.95;23.45;;;;;;;3.33;100.00;101549.84;10377419;28;20041;-81
2023/01/19 01:11:08;;;;;;;42.33;20.67;;;;;;;2.68;100.00;101441.72;10376294;28;20037;-81
2023/01/19 01:16:08;;;;;;;55.90;22.38;;;;;;;2.86;100.00;101468.66;10375582;28;20502;-81
2023/01/19 01:21:11;;;;;;;48.38;21.75;;;;;;;2.67;100.00;101430.38;10376194;28;20140;-81
2023/01/19 01:26:12;;;;;;;53.88;23.23;;;;;;;3.04;100.00;101504.31;10376081;28;20038;-81
2023/01/19 01:31:13;;;;;;;60.33;22.45;;;;;;;3.31;100.00;101559.59;10376057;28;20049;-82
2023/01/19 01:36:13;;;;;;;51.30;21.02;;;;;;;2.65;100.00;101452.38;10375756;28;20068;-81
2023/01/19 01:41:14;;;;;;;53.70;22.08;;;;;;;2.69;100.00;101452.13;10375373;28;20036;-81
2023/01/19 01:46:16;;;;;;;65.25;23.83;;;;;;;2.65;100.00;101447.13;10373500;28;20068;-80
2023/01/19 01:51:48;;;;;;;45.97;22.45;;;;;;;2.19;100.00;101387.72;10375541;28;20069;-81
2023/01/19 01:56:52;;;;;;;52.60;22.27;;;;;;;3.01;100.00;101524.66;10373837;28;20042;-81
2023/01/19 02:18:01;;;;;;;56.83;22.08;;;;;;;3.01;100.00;101535.16;10373756;28;20173;-81
2023/01/19 02:23:08;;;;;;;58.72;24.50;;;;;;;2.42;100.00;101432.72;10373250;28;20042;-81
2023/01/19 02:28:09;;;;;;;68.93;23.00;;;;;;;2.84;100.00;101496.75;10373787;28;20041;-82
2023/01/19 02:33:10;;;;;;;68.18;22.77;;;;;;;3.15;100.00;101548.31;10373567;28;20103;-81
2023/01/19 02:38:13;;;;;;;75.90;25.35;;;;;;;3.04;100.00;101527.09;10373427;28;20084;-81
2023/01/19 02:43:16;;;;;;;64.63;24.33;;;;;;;2.81;100.00;101500.41;10372892;28;20505;-79
2023/01/19 02:48:19;;;;;;;72.10;25.55;;;;;;;2.88;100.00;101520.13;10372133;28;20049;-88
2023/01/19 02:53:41;;;;;;;57.17;24.75;;;;;;;2.44;100.00;101441.38;10373395;28;20508;-82
2023/01/19 02:58:52;;;;;;;68.55;26.02;;;;;;;3.02;100.00;101544.69;10373135;28;20041;-80
2023/01/19 03:04:37;;;;;;;55.08;25.05;;;;;;;3.11;100.00;101565.16;10372928;28;20128;-85
2023/01/19 03:09:58;;;;;;;66.00;26.92;;;;;;;3.00;100.00;101544.81;10370820;28;20042;-85
2023/01/19 03:15:07;;;;;;;62.38;28.13;;;;;;;2.94;100.00;101532.03;10370608;28;20685;-84
2023/01/19 03:20:12;;;;;;;70.75;29.02;;;;;;;2.70;100.00;101506.28;10372706;28;20053;-84
2023/01/19 03:25:14;;;;;;;56.63;26.58;;;;;;;2.98;100.00;101575.53;10371829;28;20398;-84
2023/01/19 03:30:21;;;;;;;58.20;27.15;;;;;;;2.91;100.00;101574.22;10371247;28;20050;-84
2023/01/19 03:35:25;;;;;;;59.08;26.02;;;;;;;2.86;100.00;101571.00;10369502;28;20045;-79
2023/01/19 03:40:29;;;;;;;72.88;26.55;;;;;;;2.74;100.00;101552.38;10345012;28;20064;-79
2023/01/19 03:45:32;;;;;;;61.90;27.58;;;;;;;2.41;100.00;101494.00;10357533;28;20088;-78
2023/01/19 03:50:33;;;;;;;61.05;27.05;;;;;;;3.00;100.00;101575.47;10365627;28;20561;-76
2023/01/19 03:55:35;;;;;;;67.80;26.52;;;;;;;2.65;100.00;101539.81;10369290;28;20069;-84
2023/01/19 04:00:36;;;;;;;67.40;27.25;;;;;;;2.94;100.00;101588.00;10371610;28;20053;-81
2023/01/19 04:05:38;;;;;;;69.22;26.88;;;;;;;2.87;100.00;101580.56;10370850;28;20409;-79
2023/01/19 04:10:39;;;;;;;62.00;25.30;;;;;;;2.27;100.00;101498.25;10371937;28;20042;-79
2023/01/19 04:15:39;;;;;;;58.72;25.30;;;;;;;2.35;100.00;101513.53;10370778;28;20458;-78
2023/01/19 04:20:40;;;;;;;56.42;24.75;;;;;;;2.85;100.00;101612.16;10372031;28;20054;-79
2023/01/19 04:25:41;;;;;;;56.28;24.52;;;;;;;3.09;100.00;101659.78;10374609;28;20042;-74
2023/01/19 04:30:42;;;;;;;58.42;25.17;;;;;;;2.26;100.00;101514.91;10378718;28;20048;-77
2023/01/19 04:35:44;;;;;;;62.15;24.30;;;;;;;2.53;100.00;101550.16;10378281;28;20108;-81
2023/01/19 04:40:47;;;;;;;60.20;24.08;;;;;;;3.01;100.00;101641.00;10378112;28;20038;-78
2023/01/19 04:45:48;;;;;;;69.82;25.13;;;;;;;2.98;100.00;101641.16;10375737;28;20528;-88
2023/01/19 04:50:51;;;;;;;60.78;25.25;;;;;;;2.86;100.00;101615.63;10377033;28;20045;-81
2023/01/19 04:55:54;;;;;;;62.03;25.67;;;;;;;3.04;100.00;101655.72;10376878;28;20053;-81
2023/01/19 05:00:55;;;;;;;60.47;25.35;;;;;;;3.05;100.00;101671.41;10373206;28;20045;-82
2023/01/19 05:05:55;;;;;;;59.97;25.02;;;;;;;2.75;100.00;101629.31;10371970;28;20034;-81
2023/01/19 05:10:56;;;;;;;67.25;24.48;;;;;;;2.89;100.00;101655.66;10373109;28;20410;-82
2023/01/19 05:15:57;;;;;;;65.65;25.27;;;;;;;2.63;100.00;101606.41;10376393;28;20065;-82
2023/01/19 05:20:58;;;;;;;59.45;24.33;;;;;;;2.82;100.00;101638.56;10375900;28;20049;-82
2023/01/19 05:26:00;;;;;;;70.47;25.10;;;;;;;2.59;100.00;101604.91;10376955;28;20050;-82
2023/01/19 05:31:01;;;;;;;75.18;26.95;;;;;;;2.96;100.00;101666.66;10376036;28;20120;-82
2023/01/19 05:36:03;;;;;;;87.50;27.20;;;;;;;3.07;100.00;101690.53;10376466;28;20091;-83
2023/01/19 05:41:04;;;;;;;91.97;29.42;;;;;;;2.48;100.00;101593.25;10375186;28;20033;-82
2023/01/19 05:46:05;;;;;;;80.40;30.52;;;;;;;3.16;100.00;101707.53;10375601;28;20045;-82
2023/01/19 05:51:06;;;;;;;91.82;27.73;;;;;;;2.78;100.00;101639.66;10374685;28;20091;-83
2023/01/19 05:56:08;;;;;;;100.93;28.92;;;;;;;3.18;100.00;101703.91;10375081;28;20477;-83
2023/01/19 06:01:09;;;;;;;98.10;30.90;;;;;;;3.20;100.00;101704.66;10374868;28;20077;-82
2023/01/19 06:06:11;;;;;;;111.35;38.03;;;;;;;3.29;100.00;101690.16;10374119;28;20540;-82
2023/01/19 06:11:12;;;;;;;87.13;32.00;;;;;;;3.36;100.00;101693.28;10374990;28;20038;-82
2023/01/19 06:16:13;;;;;;;99.28;30.70;;;;;;;2.73;100.00;101586.59;10373540;28;20498;-83
2023/01/19 06:21:14;;;;;;;95.30;30.30;;;;;;;3.42;100.00;101692.91;10373603;28;20049;-83
2023/01/19 06:26:14;;;;;;;77.63;29.92;;;;;;;3.16;100.00;101634.00;10373932;28;20393;-82
2023/01/19 06:31:15;;;;;;;82.80;32.00;;;;;;;3.40;100.00;101668.50;10374376;28;20088;-81
2023/01/19 06:36:16;;;;;;;79.65;29.48;;;;;;;3.71;100.00;101703.50;10373073;28;20050;-82
2023/01/19 06:41:17;;;;;;;87.75;29.00;;;;;;;3.63;100.00;101686.41;10372708;28;20181;-82
2023/01/19 06:46:17;;;;;;;78.60;29.92;;;;;;;3.35;100.00;101650.41;10372767;28;20489;-82
2023/01/19 06:51:18;;;;;;;70.60;27.50;;;;;;;3.23;100.00;101608.25;10373700;28;20125;-81
2023/01/19 06:56:19;;;;;;;68.15;27.73;;;;;;;1.85;100.00;101406.28;10372903;28;20096;-81
2023/01/19 07:01:19;;;;;;;68.32;29.30;;;;;;;3.38;100.00;101638.84;10372193;28;20038;-81
2023/01/19 07:06:20;;;;;;;65.30;28.13;;;;;;;3.33;100.00;101620.75;10372021;28;20099;-81
2023/01/19 07:11:21;;;;;;;62.80;27.02;;;;;;;2.87;100.00;101543.81;10373142;28;20037;-81
2023/01/19 07:16:22;;;;;;;75.45;27.95;;;;;;;3.87;100.00;101699.88;10372530;28;20080;-81
2023/01/19 07:21:23;;;;;;;72.13;27.63;;;;;;;4.08;100.00;101723.19;10372471;28;20069;-81
2023/01/19 07:26:24;;;;;;;72.68;27.63;;;;;;;4.10;100.00;101705.56;10372168;28;20042;-82
2023/01/19 07:31:24;;;;;;;66.60;26.90;;;;;;;3.64;100.00;101614.50;10372281;28;20038;-81
2023/01/19 07:36:25;;;;;;;66.88;26.88;;;;;;;4.45;100.00;101729.69;10372358;28;20038;-81
2023/01/19 07:41:26;;;;;;;67.55;26.88;;;;;;;4.43;100.00;101705.28;10372063;28;20054;-81
2023/01/19 07:46:27;;;;;;;60.72;28.00;;;;;;;4.68;100.00;101724.81;10371596;28;20045;-81
2023/01/19 07:51:27;;;;;;;67.32;27.98;;;;;;;4.41;100.00;101659.78;10371872;28;20048;-81
2023/01/19 07:56:29;;;;;;;63.78;27.58;;;;;;;4.41;100.00;101627.38;10372103;28;20512;-81
2023/01/19 08:01:30;;;;;;;56.92;27.17;;;;;;;4.85;100.00;101700.06;10377359;28;20041;-81
2023/01/19 08:06:37;;;;;;;57.08;26.73;;;;;;;4.64;100.00;101650.44;10378796;28;20046;-81
2023/01/19 08:11:38;;;;;;;69.30;28.58;;;;;;;4.86;100.00;101649.06;10378695;28;20053;-81
2023/01/19 08:16:38;;;;;;;66.38;29.33;;;;;;;4.63;100.00;101592.63;10379154;28;20482;-82
2023/01/19 08:21:39;;;;;;;60.30;27.90;;;;;;;4.85;100.00;101624.53;10379164;28;20485;-81
2023/01/19 08:26:40;;;;;;;53.08;26.67;;;;;;;5.10;100.00;101660.63;10378491;28;20041;-80
2023/01/19 08:31:41;;;;;;;62.88;27.58;;;;;;;4.69;99.80;101582.53;10378382;28;20041;-81
2023/01/19 08:36:41;;;;;;;65.35;27.38;;;;;;;4.44;99.67;101545.63;10377754;28;20042;-81
2023/01/19 08:41:43;;;;;;;58.10;29.42;;;;;;;5.29;100.00;101672.59;10378744;28;20145;-81
2023/01/19 08:46:44;;;;;;;65.97;27.98;;;;;;;4.93;98.92;101569.56;10377593;28;20065;-81
2023/01/19 08:51:45;;;;;;;63.40;27.70;;;;;;;5.34;97.42;101626.56;10377066;28;20061;-81
2023/01/19 08:56:46;;;;;;;48.38;27.17;;;;;;;5.55;96.62;101658.53;10377483;28;20042;-81
2023/01/19 09:01:47;;;;;;;52.67;28.25;;;;;;;5.35;95.00;101614.22;10376867;28;20038;-81
2023/01/19 09:06:47;;;;;;;55.15;28.45;;;;;;;5.42;93.67;101628.69;10377059;28;20046;-80
2023/01/19 09:11:48;;;;;;;53.70;26.85;;;;;;;5.44;93.59;101613.59;10376470;28;20048;-80
2023/01/19 09:16:49;;;;;;;59.92;31.35;;;;;;;5.53;93.48;101635.84;10376292;28;20544;-81
2023/01/19 09:21:53;;;;;;;52.60;27.88;;;;;;;5.10;92.91;101559.72;10376376;28;20045;-80
2023/01/19 09:26:53;;;;;;;46.05;26.52;;;;;;;4.96;91.47;101537.75;10375748;28;20038;-80
2023/01/19 09:31:54;;;;;;;58.72;27.70;;;;;;;5.55;91.25;101623.44;10376118;28;20042;-81
2023/01/19 09:36:55;;;;;;;56.15;27.33;;;;;;;5.60;90.76;101621.34;10375804;28;20402;-82
2023/01/19 09:42:26;;;;;;;49.17;27.13;;;;;;;5.57;90.26;101593.38;10375747;28;20111;-80
2023/01/19 09:47:29;;;;;;;48.88;27.48;;;;;;;5.67;90.51;101619.97;10376117;28;20053;-80
2023/01/19 09:52:34;;;;;;;50.10;28.07;;;;;;;5.67;90.95;101602.34;10375281;28;20042;-80
2023/01/19 09:57:35;;;;;;;48.80;28.25;;;;;;;5.07;90.17;101496.72;10375921;28;20633;-81
2023/01/19 10:02:43;;;;;;;46.83;26.80;;;;;;;5.67;89.65;101597.06;10374911;28;20053;-82
2023/01/19 10:08:00;;;;;;;45.75;26.60;;;;;;;4.99;89.79;101466.44;10373438;28;20046;-81
2023/01/19 10:13:33;;;;;;;48.80;26.65;;;;;;;5.87;88.40;101600.97;10374593;28;20102;-81
2023/01/19 10:18:47;;;;;;;43.45;25.55;;;;;;;5.78;89.23;101609.53;10375045;28;20060;-82
2023/01/19 10:23:54;;;;;;;42.80;26.25;;;;;;;5.67;88.97;101604.97;10373574;28;20564;-79
2023/01/19 10:29:01;;;;;;;49.42;27.20;;;;;;;5.18;89.82;101552.16;10373857;28;20046;-81
2023/01/19 10:34:03;;;;;;;42.22;25.92;;;;;;;5.30;89.84;101568.91;10373774;28;20033;-81
2023/01/19 10:39:05;;;;;;;50.95;27.30;;;;;;;5.28;89.91;101579.53;10373616;28;20045;-81
2023/01/19 10:44:08;;;;;;;50.00;27.00;;;;;;;4.93;89.65;101535.34;10372416;28;20091;-81
2023/01/19 10:49:41;;;;;;;50.10;28.17;;;;;;;5.24;90.21;101581.53;10373641;28;20045;-81
2023/01/19 10:54:43;;;;;;;47.80;28.37;;;;;;;4.95;90.72;101527.34;10372637;28;20080;-81
2023/01/19 10:59:43;;;;;;;48.80;28.17;;;;;;;5.43;90.48;101591.69;10373300;28;20508;-81
2023/01/19 11:04:50;;;;;;;57.95;29.77;;;;;;;5.47;90.16;101598.44;10372195;28;20069;-80
2023/01/19 11:10:16;;;;;;;50.75;28.05;;;;;;;5.53;89.79;101610.34;10372101;28;20046;-81
2023/01/19 11:15:24;;;;;;;49.55;29.40;;;;;;;5.39;90.49;101590.22;10372066;28;20042;-81
2023/01/19 11:20:33;;;;;;;53.38;28.42;;;;;;;5.37;90.36;101588.63;10372915;28;20053;-81
2023/01/19 11:25:35;;;;;;;53.72;27.90;;;;;;;5.43;90.51;101604.03;10372891;28;20045;-81
2023/01/19 11:30:36;;;;;;;49.17;27.58;;;;;;;5.34;90.88;101589.66;10371719;28;20041;-81
2023/01/19 11:35:39;;;;;;;52.25;27.73;;;;;;;5.40;90.80;101615.59;10378399;28;20128;-81
2023/01/19 11:40:42;;;;;;;54.08;29.48;;;;;;;5.32;90.36;101619.69;10381295;28;20062;-81
2023/01/19 11:45:44;;;;;;;53.00;28.75;;;;;;;4.95;89.92;101572.94;10380502;28;20048;-81
2023/01/19 11:50:48;;;;;;;55.72;29.88;;;;;;;5.16;90.69;101612.81;10380057;28;20061;-80
2023/01/19 11:56:08;;;;;;;49.35;29.58;;;;;;;5.29;90.61;101652.34;10379361;28;20521;-80
2023/01/19 12:01:23;;;;;;;52.53;29.52;;;;;;;5.25;90.58;101658.78;10379724;28;20551;-82
2023/01/19 12:06:32;;;;;;;50.47;29.05;;;;;;;4.40;90.57;101512.53;10378910;28;20126;-82
2023/01/19 12:11:47;;;;;;;59.08;29.85;;;;;;;5.21;90.26;101644.97;10379318;28;20544;-82
2023/01/19 12:16:53;;;;;;;55.95;29.40;;;;;;;4.75;90.83;101582.16;10372118;28;20053;-78
2023/01/19 12:21:55;;;;;;;51.80;28.23;;;;;;;4.22;90.69;101497.03;10379144;28;20052;-77
2023/01/19 12:26:57;;;;;;;55.28;30.23;;;;;;;4.63;90.90;101571.56;10378136;28;20406;-76
2023/01/19 12:32:15;;;;;;;54.38;30.25;;;;;;;5.35;91.43;101685.38;10378478;28;20136;-75
2023/01/19 12:37:39;;;;;;;48.75;29.80;;;;;;;5.32;91.10;101681.13;10372279;28;20046;-76
2023/01/19 12:42:43;;;;;;;;;;;;;;;5.39;90.22;101684.25;10365519;28;20449;-77
2023/01/19 12:47:52;;;;;;;45.78;28.52;;;;;;;5.19;90.34;101667.09;10368863;28;19921;-76
2023/01/19 12:53:00;;;;;;;49.13;28.58;;;;;;;4.95;90.76;101636.16;10372280;28;20506;-79
2023/01/19 12:58:13;;;;;;;53.50;29.75;;;;;;;5.28;90.72;101690.19;10376811;28;20065;-81
2023/01/19 13:03:17;;;;;;;51.10;31.35;;;;;;;5.25;90.84;101682.50;10377271;28;20042;-78
2023/01/19 13:08:20;;;;;;;54.23;29.63;;;;;;;5.07;90.82;101655.56;10377100;28;20042;-79
2023/01/19 13:13:23;;;;;;;59.60;31.23;;;;;;;5.20;91.07;101674.88;10377296;28;20041;-79
2023/01/19 13:18:30;;;;;;;60.50;30.77;;;;;;;5.21;91.40;101671.31;10373778;28;20057;-81
2023/01/19 13:23:49;;;;;;;55.80;30.05;;;;;;;4.14;90.81;101487.94;10360958;28;20601;-74
2023/01/19 13:28:54;;;;;;;52.08;29.75;;;;;;;4.92;91.33;101628.44;10355002;28;20057;-77
2023/01/19 13:33:58;;;;;;;48.78;31.05;;;;;;;4.88;91.24;101621.72;10356576;28;20049;-78
2023/01/19 13:39:03;;;;;;;50.90;29.20;;;;;;;5.13;90.72;101672.78;10329818;28;20092;-78
2023/01/19 13:44:17;;;;;;;55.53;31.08;;;;;;;4.34;90.71;101535.69;10362930;28;20470;-76
2023/01/19 13:49:35;;;;;;;49.37;29.10;;;;;;;5.28;90.52;101690.19;10349091;28;20532;-74
2023/01/19 13:54:35;;;;;;;54.30;31.73;;;;;;;4.70;91.01;101596.56;10345468;28;20042;-76
2023/01/19 13:59:36;;;;;;;53.25;30.90;;;;;;;5.10;90.87;101668.53;10342150;28;20042;-79
2023/01/19 14:04:37;;;;;;;49.60;31.42;;;;;;;4.97;90.75;101647.44;10375069;28;20046;-78
2023/01/19 14:09:38;;;;;;;50.80;31.27;;;;;;;4.77;90.96;101613.66;10373578;28;20119;-76
2023/01/19 14:14:41;;;;;;;68.90;36.90;;;;;;;4.97;90.19;101651.88;10374011;28;20046;-78
2023/01/19 14:19:50;;;;;;;67.65;39.35;;;;;;;5.18;90.29;101697.03;10374358;28;20116;-78
2023/01/19 14:24:50;;;;;;;71.32;43.95;;;;;;;5.24;89.77;101704.53;10374298;28;20061;-78
2023/01/19 14:29:53;;;;;;;70.07;37.40;;;;;;;4.98;90.39;101667.53;10373633;28;20132;-79
2023/01/19 14:35:03;;;;;;;63.92;37.65;;;;;;;5.35;89.82;101720.47;10373063;28;20042;-78
2023/01/19 14:40:03;;;;;;;68.57;41.35;;;;;;;5.36;89.70;101721.34;10372640;28;20481;-78
2023/01/19 14:45:14;;;;;;;81.32;47.67;;;;;;;5.26;89.82;101714.03;10373689;28;20072;-78
2023/01/19 14:50:33;;;;;;;75.80;41.05;;;;;;;5.22;89.54;101688.81;10372250;28;20046;-78
2023/01/19 14:55:42;;;;;;;66.55;37.42;;;;;;;5.40;90.04;101705.22;10366635;28;20148;-78
2023/01/19 15:00:44;;;;;;;58.88;35.60;;;;;;;5.15;89.71;101687.53;10372958;28;20547;-79
2023/01/19 15:05:46;;;;;;;57.58;36.40;;;;;;;5.26;89.79;101681.53;10372488;28;20391;-78
2023/01/19 15:10:47;;;;;;;51.58;32.38;;;;;;;5.14;90.14;101674.44;10370227;28;20058;-78
2023/01/19 15:15:49;;;;;;;52.95;31.20;;;;;;;5.20;90.18;101661.72;10372634;28;20513;-78
2023/01/19 15:21:05;;;;;;;49.20;30.40;;;;;;;5.31;89.65;101683.88;10338505;28;20081;-76
2023/01/19 15:26:06;;;;;;;57.00;34.63;;;;;;;5.26;89.95;101673.66;10371517;28;20053;-76
2023/01/19 15:31:14;;;;;;;58.00;33.95;;;;;;;5.46;89.87;101694.25;10371263;28;20058;-77
2023/01/19 15:36:19;;;;;;;58.40;32.00;;;;;;;5.36;89.66;101689.72;10371467;28;20296;-77
2023/01/19 15:41:30;;;;;;;55.85;33.55;;;;;;;5.34;89.35;101670.50;10371485;28;20038;-77
2023/01/19 15:46:32;;;;;;;62.63;36.92;;;;;;;5.51;89.47;101701.03;10370998;28;20057;-77
2023/01/19 15:51:33;;;;;;;63.50;37.63;;;;;;;5.35;89.66;101667.75;10371097;28;20038;-78
2023/01/19 15:56:33;;;;;;;62.20;33.13;;;;;;;5.39;89.96;101673.69;10371650;28;20034;-77
2023/01/19 16:01:34;;;;;;;51.15;31.60;;;;;;;5.59;89.96;101696.91;10371936;28;20556;-78
2023/01/19 16:06:36;;;;;;;56.85;31.45;;;;;;;5.61;89.97;101704.72;10371803;28;20092;-78
2023/01/19 16:11:37;;;;;;;52.30;30.77;;;;;;;5.52;90.04;101679.00;10370589;28;20579;-77
2023/01/19 16:16:37;;;;;;;48.40;30.38;;;;;;;5.04;89.85;101595.19;10370516;28;20061;-77
2023/01/19 16:21:38;;;;;;;56.05;31.35;;;;;;;5.35;89.73;101651.09;10375955;28;20037;-78
2023/01/19 16:26:39;;;;;;;63.35;38.13;;;;;;;5.44;89.76;101669.81;10377695;28;20049;-77
2023/01/19 16:31:41;;;;;;;60.85;36.63;;;;;;;5.65;89.08;101706.22;10378349;28;20057;-77
2023/01/19 16:36:42;;;;;;;61.20;32.55;;;;;;;5.51;88.78;101706.31;10377312;28;20107;-77
2023/01/19 16:41:44;;;;;;;47.97;26.58;;;;;;;5.30;88.80;101676.94;10378974;28;20042;-77
2023/01/19 16:46:48;;;;;;;36.83;20.65;;;;;;;5.21;89.87;101676.59;10377665;28;20125;-78
2023/01/19 16:51:49;;;;;;;44.13;19.90;;;;;;;5.13;90.90;101657.81;10377051;28;20048;-77
2023/01/19 16:56:51;;;;;;;26.75;12.25;;;;;;;5.02;90.52;101655.03;10376679;28;20083;-78
2023/01/19 17:01:52;;;;;;;19.25;9.45;;;;;;;4.68;91.16;101608.97;10376650;28;20386;-78
2023/01/19 17:06:53;;;;;;;28.30;8.45;;;;;;;4.56;91.21;101603.56;10376530;28;20516;-77
2023/01/19 17:11:54;;;;;;;19.58;7.53;;;;;;;4.97;91.80;101681.66;10375743;28;20071;-77
2023/01/19 17:16:55;;;;;;;18.60;8.05;;;;;;;4.72;91.31;101652.56;10375761;28;20058;-77
2023/01/19 17:21:56;;;;;;;22.48;8.20;;;;;;;4.68;91.96;101662.47;10376790;28;20042;-77
2023/01/19 17:26:57;;;;;;;18.50;7.55;;;;;;;4.19;92.41;101588.41;10375939;28;20053;-77
2023/01/19 17:31:57;;;;;;;24.67;8.02;;;;;;;4.56;92.36;101656.19;10375645;28;20413;-78
2023/01/19 17:37:01;;;;;;;21.55;8.40;;;;;;;4.61;92.68;101663.81;10376182;28;20045;-78
2023/01/19 17:42:02;;;;;;;18.73;8.13;;;;;;;4.13;93.07;101594.91;10375486;28;20120;-78
2023/01/19 17:47:03;;;;;;;21.17;8.35;;;;;;;4.57;93.47;101671.03;10375452;28;20472;-78
2023/01/19 17:52:04;;;;;;;22.88;8.82;;;;;;;4.48;93.39;101682.13;10375600;28;20072;-77
2023/01/19 17:57:04;;;;;;;24.20;8.77;;;;;;;4.32;94.13;101655.94;10375446;28;20414;-76
2023/01/19 18:02:05;;;;;;;17.35;9.63;;;;;;;4.33;93.14;101656.78;10374451;28;20042;-77
2023/01/19 18:07:06;;;;;;;18.80;9.07;;;;;;;4.07;93.32;101632.13;10373807;28;20037;-77
2023/01/19 18:12:07;;;;;;;21.23;9.63;;;;;;;4.23;94.29;101672.28;10374227;28;20034;-76
2023/01/19 18:17:08;;;;;;;20.83;9.68;;;;;;;3.93;94.34;101634.72;10372634;28;20549;-77
2023/01/19 18:22:08;;;;;;;21.00;9.43;;;;;;;3.99;94.11;101634.34;10372308;28;20100;-77
2023/01/19 18:27:09;;;;;;;22.58;8.70;;;;;;;3.85;94.79;101630.78;10371785;28;20049;-77
2023/01/19 18:32:10;;;;;;;21.17;8.80;;;;;;;3.75;94.64;101629.66;10373900;28;20124;-76
2023/01/19 18:37:11;;;;;;;17.85;9.05;;;;;;;3.64;94.78;101616.31;10372759;28;20486;-77
2023/01/19 18:42:12;;;;;;;23.92;9.77;;;;;;;3.20;95.57;101564.63;10371810;28;20041;-76
2023/01/19 18:47:12;;;;;;;23.75;10.35;;;;;;;3.16;94.92;101577.09;10372466;28;20053;-77
2023/01/19 18:52:13;;;;;;;19.52;9.77;;;;;;;3.59;95.66;101657.75;10372894;28;20148;-76
2023/01/19 18:57:16;;;;;;;19.33;10.00;;;;;;;3.52;95.89;101646.78;10372340;28;20068;-77
2023/01/19 19:02:17;;;;;;;27.25;11.48;;;;;;;3.18;95.94;101612.00;10372157;28;20052;-78
2023/01/19 19:07:18;;;;;;;30.45;11.43;;;;;;;3.39;96.11;101653.69;10387530;28;20038;-78
2023/01/19 19:12:18;;;;;;;20.98;11.35;;;;;;;2.87;96.44;101573.56;10372037;28;20045;-78
2023/01/19 19:17:19;;;;;;;24.02;11.93;;;;;;;2.96;96.74;101595.78;10372429;28;20119;-77
2023/01/19 19:22:20;;;;;;;28.45;13.23;;;;;;;3.38;96.74;101657.25;10372268;28;20042;-79
2023/01/19 19:27:21;;;;;;;28.05;12.75;;;;;;;3.40;96.99;101668.50;10371799;28;20042;-78
2023/01/19 19:32:22;;;;;;;29.42;13.95;;;;;;;2.84;97.38;101576.34;10360947;28;20574;-77
2023/01/19 19:37:23;;;;;;;30.55;15.43;;;;;;;3.23;97.56;101639.75;10368005;28;20137;-79
2023/01/19 19:42:23;;;;;;;35.35;15.05;;;;;;;3.33;97.41;101670.66;10357039;28;20466;-76
2023/01/19 19:47:25;;;;;;;30.65;16.48;;;;;;;3.27;98.15;101668.38;10348394;28;20061;-77
2023/01/19 19:52:26;;;;;;;35.08;17.17;;;;;;;3.18;97.90;101648.75;10348006;28;20038;-77
2023/01/19 19:57:27;;;;;;;36.33;17.05;;;;;;;3.30;98.47;101689.22;10380126;28;20429;-78
2023/01/19 20:02:27;;;;;;;40.53;18.23;;;;;;;2.81;98.29;101597.50;10379078;28;20128;-78
2023/01/19 20:07:28;;;;;;;35.72;18.67;;;;;;;3.06;98.68;101641.59;10379204;28;20041;-78
2023/01/19 20:12:29;;;;;;;35.80;19.95;;;;;;;3.12;99.07;101651.72;10378679;28;20049;-78
2023/01/19 20:17:30;;;;;;;42.30;20.63;;;;;;;3.21;99.04;101652.97;10363600;28;20089;-79
2023/01/19 20:22:31;;;;;;;34.42;20.85;;;;;;;3.07;99.37;101634.53;10341665;28;20053;-78
2023/01/19 20:27:33;;;;;;;44.28;24.27;;;;;;;3.09;99.42;101637.94;10352413;28;20045;-78
2023/01/19 20:32:34;;;;;;;52.13;25.20;;;;;;;3.20;99.56;101649.53;10377389;28;20413;-78
2023/01/19 20:37:35;;;;;;;54.88;26.55;;;;;;;3.28;100.00;101658.72;10379090;28;20042;-78
2023/01/19 20:42:40;;;;;;;49.83;25.75;;;;;;;3.07;100.00;101619.63;10378211;28;20100;-78
2023/01/19 20:47:40;;;;;;;51.20;27.55;;;;;;;3.51;100.00;101697.66;10376723;28;20394;-78
2023/01/19 20:52:41;;;;;;;44.65;22.83;;;;;;;3.45;100.00;101690.13;10377888;28;20038;-78
2023/01/19 20:57:42;;;;;;;48.25;22.42;;;;;;;3.36;100.00;101696.75;10377841;28;20137;-78
2023/01/19 21:02:42;;;;;;;45.35;21.88;;;;;;;2.84;100.00;101612.22;10377385;28;20045;-78
2023/01/19 21:07:43;;;;;;;37.80;19.10;;;;;;;3.06;100.00;101693.25;10375947;28;20044;-78
2023/01/19 21:12:44;;;;;;;40.67;17.98;;;;;;;2.79;100.00;101677.25;10376004;28;20167;-78
2023/01/19 21:17:45;;;;;;;60.28;18.42;;;;;;;2.61;100.00;101658.13;10376987;28;20053;-78
2023/01/19 21:22:46;;;;;;;45.20;17.63;;;;;;;1.90;100.00;101558.84;10376422;28;20046;-78
2023/01/19 21:27:46;;;;;;;43.08;17.58;;;;;;;2.49;100.00;101685.88;10375594;28;20505;-78
2023/01/19 21:32:47;;;;;;;42.78;17.67;;;;;;;2.38;100.00;101675.13;10376449;28;20125;-79
2023/01/19 21:37:48;;;;;;;48.92;17.77;;;;;;;2.33;100.00;101687.63;10376374;28;20077;-78
2023/01/19 21:42:51;;;;;;;43.80;19.00;;;;;;;1.74;100.00;101601.59;10376502;28;20045;-79
2023/01/19 21:47:51;;;;;;;45.47;18.90;;;;;;;2.15;100.00;101679.78;10375386;28;20411;-78
2023/01/19 21:52:52;;;;;;;39.42;19.52;;;;;;;1.92;100.00;101653.97;10376025;28;20132;-78
2023/01/19 21:57:53;;;;;;;45.58;19.17;;;;;;;2.04;100.00;101679.53;10374578;28;20135;-78
2023/01/19 22:02:57;;;;;;;52.58;20.73;;;;;;;1.71;100.00;101633.19;10374400;28;20100;-78
2023/01/19 22:07:58;;;;;;;51.30;21.15;;;;;;;1.42;100.00;101599.78;10374769;28;20485;-78
2023/01/19 22:12:59;;;;;;;57.83;22.75;;;;;;;1.99;100.00;101687.63;10374101;28;20128;-78
2023/01/19 22:18:00;;;;;;;56.70;23.40;;;;;;;1.99;100.00;101687.63;10373941;28;20065;-78
2023/01/19 22:23:00;;;;;;;51.65;22.83;;;;;;;1.77;100.00;101655.59;10373927;28;20176;-78
2023/01/19 22:28:01;;;;;;;56.10;23.17;;;;;;;1.21;100.00;101546.75;10374922;28;20042;-78
2023/01/19 22:33:02;;;;;;;49.70;21.20;;;;;;;1.39;100.00;101571.16;10373885;28;20034;-77
2023/01/19 22:38:03;;;;;;;59.13;23.10;;;;;;;1.73;100.00;101641.78;10373738;28;20038;-78
2023/01/19 22:43:04;;;;;;;52.80;22.05;;;;;;;1.66;100.00;101632.56;10373838;28;20508;-78
2023/01/19 22:48:05;;;;;;;53.85;23.30;;;;;;;1.83;100.00;101668.41;10373647;28;20038;-78
2023/01/19 22:53:05;;;;;;;54.63;21.13;;;;;;;1.78;100.00;101673.84;10372864;28;20041;-78
2023/01/19 22:58:06;;;;;;;49.22;19.75;;;;;;;1.82;100.00;101696.38;10372643;28;20100;-78
2023/01/19 23:03:07;;;;;;;49.00;19.98;;;;;;;0.94;100.00;101575.16;10371765;28;20437;-78
2023/01/19 23:08:08;;;;;;;48.45;21.25;;;;;;;1.28;100.00;101643.22;10372744;28;20049;-78